Time;durP1;ratioP1;P1;durP2;ratioP2;P2;SDS_P1;SDS_P2;PMS_P1;PMS_P2;Temp;Humidity;BMP_temperature;BMP_pressure;BME280_temperature;BME280_humidity;BME280_pressure;Samples;Min_cycle;Max_cycle;Signal;HPM_P1;HPM_P2
2022/01/16 00:04:18;;;;;;;130.32;44.92;;;;;;;;;;6186548;28;20069;-61
2022/01/16 00:07:19;;;;;;;149.70;48.28;;;;;;;;;;6186547;28;20081;-60
2022/01/16 00:10:21;;;;;;;138.90;46.90;;;;;;;;;;6182758;28;20112;-60
2022/01/16 00:13:23;;;;;;;144.23;47.30;;;;;;;;;;6184254;28;20050;-60
2022/01/16 00:16:24;;;;;;;156.93;50.03;;;;;;;;;;6184459;28;20507;-60
2022/01/16 00:19:25;;;;;;;146.18;50.17;;;;;;;;;;6185655;28;20058;-60
2022/01/16 00:22:32;;;;;;;143.17;49.10;;;;;;;;;;6179998;28;20073;-61
2022/01/16 00:25:32;;;;;;;135.68;46.30;;;;;;;;;;6188983;28;20137;-60
2022/01/16 00:28:33;;;;;;;143.30;50.00;;;;;;;;;;6191967;28;20050;-61
2022/01/16 00:31:37;;;;;;;157.65;50.80;;;;;;;;;;6187866;28;20146;-61
2022/01/16 00:34:37;;;;;;;162.07;52.95;;;;;;;;;;6183199;28;20145;-61
2022/01/16 00:37:39;;;;;;;164.20;53.38;;;;;;;;;;6184261;28;20046;-61
2022/01/16 00:40:41;;;;;;;168.23;54.53;;;;;;;;;;6183069;28;20104;-61
2022/01/16 00:43:42;;;;;;;193.32;60.67;;;;;;;;;;6186186;28;20484;-59
2022/01/16 00:46:42;;;;;;;195.40;62.35;;;;;;;;;;6189158;28;20057;-61
2022/01/16 00:49:43;;;;;;;231.00;67.55;;;;;;;;;;6193619;28;20467;-61
2022/01/16 00:52:44;;;;;;;222.15;64.07;;;;;;;;;;6188723;28;20139;-60
2022/01/16 00:55:45;;;;;;;215.57;59.15;;;;;;;;;;6195253;28;20565;-60
2022/01/16 00:58:45;;;;;;;209.38;61.30;;;;;;;;;;6190864;28;20120;-61
2022/01/16 01:01:46;;;;;;;192.48;58.78;;;;;;;;;;6191503;28;20054;-60
2022/01/16 01:04:47;;;;;;;185.48;59.70;;;;;;;;;;6190770;28;20504;-61
2022/01/16 01:07:48;;;;;;;244.65;65.03;;;;;;;;;;6189996;28;20062;-61
2022/01/16 01:10:51;;;;;;;183.77;58.15;;;;;;;;;;6192139;28;20043;-61
2022/01/16 01:17:01;;;;;;;192.32;60.20;;;;;;;;;;6188804;28;20139;-61
2022/01/16 01:20:02;;;;;;;172.85;57.53;;;;;;;;;;6188187;28;20058;-60
2022/01/16 01:23:03;;;;;;;203.48;54.58;;;;;;;;;;6185044;28;20089;-60
2022/01/16 01:26:03;;;;;;;194.57;58.55;;;;;;;;;;6185905;28;20055;-61
2022/01/16 01:29:04;;;;;;;158.43;52.88;;;;;;;;;;6184450;28;20073;-60
2022/01/16 01:32:05;;;;;;;193.90;56.30;;;;;;;;;;6190337;28;20125;-60
2022/01/16 01:35:11;;;;;;;211.00;57.40;;;;;;;;;;6191415;28;20084;-60
2022/01/16 01:38:17;;;;;;;181.73;57.10;;;;;;;;;;6183205;28;20059;-60
2022/01/16 01:41:19;;;;;;;182.23;54.22;;;;;;;;;;6182495;28;20046;-60
2022/01/16 01:51:04;;;;;;;169.05;55.30;;;;;;;;;;6183264;28;20053;-60
2022/01/16 01:54:06;;;;;;;161.85;55.72;;;;;;;;;;6178556;28;20042;-60
2022/01/16 01:57:07;;;;;;;166.60;58.47;;;;;;;;;;6182802;28;20065;-60
2022/01/16 02:00:09;;;;;;;178.55;58.00;;;;;;;;;;6180172;28;20778;-60
2022/01/16 02:03:18;;;;;;;189.13;62.20;;;;;;;;;;6179472;28;20058;-61
2022/01/16 02:06:24;;;;;;;192.00;63.17;;;;;;;;;;6175884;28;20121;-61
2022/01/16 02:09:25;;;;;;;186.77;57.80;;;;;;;;;;6177088;28;20063;-60
2022/01/16 02:12:28;;;;;;;192.70;61.67;;;;;;;;;;6180319;28;20065;-61
2022/01/16 02:35:07;;;;;;;195.60;66.35;;;;;;;;;;6186022;28;20145;-61
2022/01/16 02:38:09;;;;;;;211.98;70.28;;;;;;;;;;6182159;28;20076;-61
2022/01/16 02:41:09;;;;;;;215.10;70.90;;;;;;;;;;6185283;28;20053;-61
2022/01/16 02:44:30;;;;;;;241.80;78.95;;;;;;;;;;6184963;28;20486;-60
2022/01/16 02:47:32;;;;;;;209.85;70.35;;;;;;;;;;6184603;28;20405;-60
2022/01/16 02:50:37;;;;;;;199.80;65.07;;;;;;;;;;6181674;28;20508;-60
2022/01/16 02:53:39;;;;;;;191.55;64.32;;;;;;;;;;6181427;28;20165;-60
2022/01/16 02:56:40;;;;;;;205.90;65.72;;;;;;;;;;6183591;28;20054;-60
2022/01/16 02:59:47;;;;;;;195.60;64.70;;;;;;;;;;6185583;28;20142;-61
2022/01/16 03:02:49;;;;;;;189.68;59.35;;;;;;;;;;6184511;28;20054;-61
2022/01/16 03:05:50;;;;;;;184.77;63.83;;;;;;;;;;6184028;28;20061;-62
2022/01/16 03:08:50;;;;;;;197.73;63.90;;;;;;;;;;6182606;28;20502;-61
2022/01/16 03:11:51;;;;;;;182.45;59.72;;;;;;;;;;6182136;28;20046;-59
2022/01/16 03:14:52;;;;;;;176.02;58.38;;;;;;;;;;6184918;28;20104;-59
2022/01/16 03:24:19;;;;;;;215.05;59.15;;;;;;;;;;6179947;28;20221;-60
2022/01/16 03:27:20;;;;;;;246.10;67.25;;;;;;;;;;6181661;28;20034;-59
2022/01/16 03:30:20;;;;;;;262.85;62.20;;;;;;;;;;6184526;28;20141;-59
2022/01/16 03:33:22;;;;;;;232.70;61.15;;;;;;;;;;6183019;28;20050;-61
2022/01/16 03:36:22;;;;;;;232.65;63.20;;;;;;;;;;6182975;28;20035;-61
2022/01/16 03:39:23;;;;;;;220.90;59.53;;;;;;;;;;6181125;28;20129;-61
2022/01/16 03:42:28;;;;;;;245.00;66.57;;;;;;;;;;6181213;28;20105;-61
2022/01/16 03:45:29;;;;;;;288.55;74.10;;;;;;;;;;6179282;28;20043;-61
2022/01/16 03:48:30;;;;;;;238.75;65.97;;;;;;;;;;6181283;28;20159;-61
2022/01/16 03:51:31;;;;;;;221.73;63.28;;;;;;;;;;6182801;28;20045;-61
2022/01/16 03:54:31;;;;;;;190.35;54.78;;;;;;;;;;6182363;28;20054;-61
2022/01/16 03:57:32;;;;;;;359.65;86.18;;;;;;;;;;6179665;28;20117;-61
2022/01/16 04:00:33;;;;;;;349.23;87.47;;;;;;;;;;6181969;28;20046;-61
2022/01/16 04:03:34;;;;;;;316.88;79.45;;;;;;;;;;6179363;28;20045;-61
2022/01/16 04:06:34;;;;;;;184.52;55.25;;;;;;;;;;6183058;28;20055;-61
2022/01/16 04:09:35;;;;;;;179.63;52.63;;;;;;;;;;6182267;28;20538;-60
2022/01/16 04:12:38;;;;;;;206.73;58.15;;;;;;;;;;6181590;28;20133;-61
2022/01/16 04:15:39;;;;;;;303.42;78.38;;;;;;;;;;6175730;28;20085;-61
2022/01/16 04:18:39;;;;;;;314.67;75.22;;;;;;;;;;6183751;28;20046;-59
2022/01/16 04:21:40;;;;;;;216.15;61.72;;;;;;;;;;6183778;28;20073;-60
2022/01/16 04:24:41;;;;;;;216.00;62.25;;;;;;;;;;6182127;28;22505;-60
2022/01/16 04:27:42;;;;;;;184.77;57.00;;;;;;;;;;6183786;28;20054;-59
2022/01/16 04:30:44;;;;;;;173.85;55.40;;;;;;;;;;6181900;28;20169;-60
2022/01/16 04:33:46;;;;;;;181.93;53.25;;;;;;;;;;6177154;28;20079;-60
2022/01/16 04:36:46;;;;;;;163.30;51.05;;;;;;;;;;6177741;28;20105;-59
2022/01/16 04:39:52;;;;;;;162.52;50.95;;;;;;;;;;6185201;28;20054;-61
2022/01/16 04:46:12;;;;;;;157.90;51.55;;;;;;;;;;6179580;28;20073;-61
2022/01/16 04:49:12;;;;;;;155.77;52.65;;;;;;;;;;6176572;28;20096;-61
2022/01/16 04:52:13;;;;;;;177.40;57.63;;;;;;;;;;6183578;28;20137;-61
2022/01/16 04:55:15;;;;;;;202.32;62.08;;;;;;;;;;6169599;28;20088;-61
2022/01/16 04:58:18;;;;;;;197.90;67.88;;;;;;;;;;6189026;28;20054;-61
2022/01/16 05:01:18;;;;;;;178.40;60.33;;;;;;;;;;6173520;28;20108;-61
2022/01/16 05:04:19;;;;;;;197.65;66.55;;;;;;;;;;6182005;28;20051;-61
2022/01/16 05:07:20;;;;;;;190.70;60.13;;;;;;;;;;6182519;28;20176;-61
2022/01/16 05:10:20;;;;;;;214.93;67.40;;;;;;;;;;6177062;28;20055;-61
2022/01/16 05:16:37;;;;;;;216.95;70.85;;;;;;;;;;6181153;28;20114;-60
2022/01/16 05:19:38;;;;;;;184.68;66.35;;;;;;;;;;6178640;28;20046;-60
2022/01/16 05:22:39;;;;;;;182.63;62.08;;;;;;;;;;6175244;28;20073;-60
2022/01/16 05:25:40;;;;;;;179.50;64.72;;;;;;;;;;6182397;28;20050;-60
2022/01/16 05:28:41;;;;;;;185.32;64.72;;;;;;;;;;6179015;28;20051;-59
2022/01/16 05:31:44;;;;;;;176.50;61.35;;;;;;;;;;6174199;28;20529;-60
2022/01/16 05:34:45;;;;;;;171.68;65.20;;;;;;;;;;6182538;28;20105;-60
2022/01/16 05:37:46;;;;;;;166.20;59.35;;;;;;;;;;6179866;28;20043;-62
2022/01/16 05:40:47;;;;;;;166.70;56.97;;;;;;;;;;6178784;28;21151;-60
2022/01/16 05:43:48;;;;;;;162.75;58.22;;;;;;;;;;6180060;28;20409;-60
2022/01/16 05:46:49;;;;;;;169.30;59.88;;;;;;;;;;6178947;28;20096;-61
2022/01/16 05:49:50;;;;;;;176.93;63.78;;;;;;;;;;6175267;28;20047;-61
2022/01/16 05:52:51;;;;;;;165.15;59.72;;;;;;;;;;6177715;28;20057;-61
2022/01/16 05:55:51;;;;;;;161.15;59.85;;;;;;;;;;6181338;28;20052;-59
2022/01/16 05:58:52;;;;;;;159.93;59.20;;;;;;;;;;6179577;28;20043;-60
2022/01/16 06:01:53;;;;;;;171.55;61.17;;;;;;;;;;6181934;28;20046;-61
2022/01/16 06:04:53;;;;;;;169.60;58.83;;;;;;;;;;6182637;28;20047;-60
2022/01/16 06:08:00;;;;;;;163.07;57.67;;;;;;;;;;6181070;28;20042;-60
2022/01/16 06:11:01;;;;;;;178.35;60.47;;;;;;;;;;6185282;28;20078;-60
2022/01/16 06:14:01;;;;;;;164.38;57.38;;;;;;;;;;6184189;28;20046;-60
2022/01/16 06:17:02;;;;;;;167.77;62.58;;;;;;;;;;6186946;28;20039;-60
2022/01/16 06:20:04;;;;;;;175.65;61.15;;;;;;;;;;6187527;28;20480;-60
2022/01/16 06:23:05;;;;;;;173.55;60.83;;;;;;;;;;6186744;28;20046;-60
2022/01/16 06:26:05;;;;;;;158.00;59.38;;;;;;;;;;6181385;28;20127;-60
2022/01/16 06:29:06;;;;;;;166.45;62.13;;;;;;;;;;6186756;28;20133;-60
2022/01/16 06:32:07;;;;;;;161.65;60.13;;;;;;;;;;6185891;28;20136;-60
2022/01/16 06:35:10;;;;;;;163.63;61.70;;;;;;;;;;6179036;28;20097;-60
2022/01/16 06:38:10;;;;;;;155.77;59.88;;;;;;;;;;6181050;28;20085;-60
2022/01/16 06:41:11;;;;;;;159.30;60.42;;;;;;;;;;6187190;28;20478;-60
2022/01/16 06:44:12;;;;;;;190.85;67.22;;;;;;;;;;6185747;28;20486;-61
2022/01/16 06:47:12;;;;;;;189.32;65.57;;;;;;;;;;6180978;28;20128;-60
2022/01/16 06:50:13;;;;;;;172.27;64.28;;;;;;;;;;6183566;28;20044;-60
2022/01/16 06:53:14;;;;;;;170.70;62.63;;;;;;;;;;6179896;28;20229;-60
2022/01/16 06:56:16;;;;;;;178.13;63.53;;;;;;;;;;6182139;28;20058;-60
2022/01/16 06:59:17;;;;;;;172.85;63.58;;;;;;;;;;6180893;28;20085;-60
2022/01/16 07:02:17;;;;;;;174.75;62.20;;;;;;;;;;6188079;28;20090;-63
2022/01/16 07:05:18;;;;;;;178.60;62.17;;;;;;;;;;6183068;28;20518;-59
2022/01/16 07:08:22;;;;;;;173.55;63.53;;;;;;;;;;6184357;28;20137;-60
2022/01/16 07:11:23;;;;;;;164.05;61.17;;;;;;;;;;6179901;28;20058;-69
2022/01/16 07:14:24;;;;;;;168.23;62.65;;;;;;;;;;6182914;28;20202;-61
2022/01/16 07:17:24;;;;;;;163.85;61.78;;;;;;;;;;6181885;28;20259;-61
2022/01/16 07:20:25;;;;;;;158.85;60.50;;;;;;;;;;6190878;28;20426;-60
2022/01/16 07:23:27;;;;;;;174.77;61.88;;;;;;;;;;6185279;28;20047;-61
2022/01/16 07:26:27;;;;;;;286.20;89.13;;;;;;;;;;6178966;28;20050;-61
2022/01/16 07:29:29;;;;;;;243.85;85.78;;;;;;;;;;6183019;28;20516;-61
2022/01/16 07:32:30;;;;;;;224.02;80.43;;;;;;;;;;6183811;28;20042;-60
2022/01/16 07:35:32;;;;;;;230.35;79.88;;;;;;;;;;6183519;28;20058;-61
2022/01/16 07:38:32;;;;;;;246.98;81.03;;;;;;;;;;6184923;28;20101;-61
2022/01/16 07:41:33;;;;;;;241.45;81.32;;;;;;;;;;6177902;28;20070;-61
2022/01/16 07:44:33;;;;;;;251.80;86.40;;;;;;;;;;6183570;28;20112;-61
2022/01/16 07:47:34;;;;;;;214.65;76.38;;;;;;;;;;6181437;28;20043;-61
2022/01/16 07:50:37;;;;;;;200.38;75.05;;;;;;;;;;6178643;28;20121;-61
2022/01/16 07:53:37;;;;;;;220.65;80.85;;;;;;;;;;6183020;28;20085;-61
2022/01/16 07:56:38;;;;;;;384.85;109.22;;;;;;;;;;6181796;28;20050;-61
2022/01/16 07:59:39;;;;;;;409.17;114.07;;;;;;;;;;6185191;28;20129;-61
2022/01/16 08:02:39;;;;;;;356.52;106.72;;;;;;;;;;6187737;28;20049;-61
2022/01/16 08:05:40;;;;;;;279.23;94.20;;;;;;;;;;6179331;28;20161;-61
2022/01/16 08:08:40;;;;;;;231.07;82.47;;;;;;;;;;6179792;28;20926;-62
2022/01/16 08:11:41;;;;;;;275.48;92.00;;;;;;;;;;6183549;28;20109;-61
2022/01/16 08:14:42;;;;;;;307.27;102.90;;;;;;;;;;6180990;28;20057;-61
2022/01/16 08:17:42;;;;;;;246.10;89.60;;;;;;;;;;6192781;28;20410;-62
2022/01/16 08:20:43;;;;;;;284.85;98.05;;;;;;;;;;6187967;28;20081;-61
2022/01/16 08:23:44;;;;;;;399.45;125.75;;;;;;;;;;6184664;28;20054;-61
2022/01/16 08:26:44;;;;;;;266.92;96.57;;;;;;;;;;6183587;28;20091;-60
2022/01/16 08:29:45;;;;;;;253.52;91.90;;;;;;;;;;6181301;28;20042;-61
2022/01/16 08:32:46;;;;;;;246.05;91.43;;;;;;;;;;6207973;28;20193;-62
2022/01/16 08:35:48;;;;;;;290.27;100.07;;;;;;;;;;6191504;28;20063;-62
2022/01/16 08:38:49;;;;;;;278.50;97.57;;;;;;;;;;6190922;28;20050;-63
2022/01/16 08:41:50;;;;;;;241.50;87.70;;;;;;;;;;6189424;28;20078;-61
2022/01/16 08:44:52;;;;;;;254.73;94.40;;;;;;;;;;6191276;28;20185;-61
2022/01/16 08:47:52;;;;;;;262.58;93.03;;;;;;;;;;6193302;28;20046;-61
2022/01/16 08:50:53;;;;;;;273.17;94.80;;;;;;;;;;6173461;28;20129;-61
2022/01/16 08:53:54;;;;;;;256.70;92.30;;;;;;;;;;6170688;28;20109;-61
2022/01/16 08:56:55;;;;;;;219.80;82.90;;;;;;;;;;6169479;28;20146;-61
2022/01/16 08:59:56;;;;;;;221.57;80.65;;;;;;;;;;6182665;28;20089;-61
2022/01/16 09:02:57;;;;;;;185.32;71.50;;;;;;;;;;6185729;28;20121;-61
2022/01/16 09:05:58;;;;;;;156.33;55.97;;;;;;;;;;6184731;28;20042;-61
2022/01/16 09:08:59;;;;;;;127.57;48.85;;;;;;;;;;6185069;28;20166;-61
2022/01/16 09:12:00;;;;;;;137.30;53.65;;;;;;;;;;6184647;28;20050;-63
2022/01/16 09:15:01;;;;;;;133.57;48.80;;;;;;;;;;6181578;28;20141;-61
2022/01/16 09:18:02;;;;;;;121.67;46.30;;;;;;;;;;6183820;28;20043;-61
2022/01/16 09:21:03;;;;;;;110.63;44.65;;;;;;;;;;6186729;28;20129;-61
2022/01/16 09:24:04;;;;;;;107.82;40.60;;;;;;;;;;6177968;28;21272;-61
2022/01/16 09:27:05;;;;;;;112.55;44.35;;;;;;;;;;6185251;28;20059;-61
2022/01/16 09:30:07;;;;;;;124.35;47.90;;;;;;;;;;6191647;28;20158;-61
2022/01/16 09:33:08;;;;;;;117.88;46.90;;;;;;;;;;6187056;28;20058;-61
2022/01/16 09:36:09;;;;;;;111.97;44.55;;;;;;;;;;6191952;28;20127;-61
2022/01/16 09:39:10;;;;;;;113.65;43.35;;;;;;;;;;6188874;28;20536;-61
2022/01/16 09:42:11;;;;;;;120.95;44.10;;;;;;;;;;6188485;28;20074;-62
2022/01/16 09:45:15;;;;;;;105.38;40.45;;;;;;;;;;6183583;28;20060;-61
2022/01/16 09:48:16;;;;;;;104.97;39.03;;;;;;;;;;6192001;28;20054;-62
2022/01/16 09:51:17;;;;;;;97.82;37.20;;;;;;;;;;6190464;28;20111;-65
2022/01/16 09:54:21;;;;;;;98.60;37.00;;;;;;;;;;6191545;28;20138;-61
2022/01/16 09:57:21;;;;;;;87.95;33.40;;;;;;;;;;6191733;28;20073;-65
2022/01/16 10:00:24;;;;;;;84.05;32.00;;;;;;;;;;6192889;28;20050;-60
2022/01/16 10:03:44;;;;;;;81.88;30.27;;;;;;;;;;6186340;28;20054;-59
2022/01/16 10:06:55;;;;;;;86.95;31.17;;;;;;;;;;6193697;28;20081;-60
2022/01/16 10:10:10;;;;;;;71.68;26.95;;;;;;;;;;6199737;28;20089;-61
2022/01/16 10:13:21;;;;;;;66.93;24.92;;;;;;;;;;6195122;28;20046;-59
2022/01/16 10:16:29;;;;;;;57.55;23.27;;;;;;;;;;6190208;28;20074;-60
2022/01/16 10:19:31;;;;;;;44.83;18.15;;;;;;;;;;6190619;28;20062;-60
2022/01/16 10:22:45;;;;;;;46.87;17.53;;;;;;;;;;6188654;28;20188;-62
2022/01/16 10:25:47;;;;;;;43.38;15.82;;;;;;;;;;6188234;28;20300;-61
2022/01/16 10:28:49;;;;;;;43.92;15.32;;;;;;;;;;6188392;28;20054;-61
2022/01/16 10:31:50;;;;;;;38.40;14.85;;;;;;;;;;6193038;28;20053;-59
2022/01/16 10:35:17;;;;;;;35.10;13.15;;;;;;;;;;6195247;28;20107;-67
2022/01/16 10:38:24;;;;;;;31.48;12.80;;;;;;;;;;6178034;28;20062;-60
2022/01/16 10:41:25;;;;;;;33.22;14.23;;;;;;;;;;6194257;28;20490;-60
2022/01/16 10:44:34;;;;;;;29.50;11.65;;;;;;;;;;6188527;28;20136;-66
2022/01/16 10:47:38;;;;;;;29.55;9.82;;;;;;;;;;6195350;28;20088;-58
2022/01/16 10:50:47;;;;;;;26.55;9.55;;;;;;;;;;6193255;28;20049;-62
2022/01/16 10:53:47;;;;;;;22.88;8.88;;;;;;;;;;6191723;28;20073;-61
2022/01/16 10:56:48;;;;;;;25.98;9.05;;;;;;;;;;6191230;28;20088;-59
2022/01/16 10:59:49;;;;;;;25.70;8.45;;;;;;;;;;6200474;28;20050;-63
2022/01/16 11:02:51;;;;;;;26.05;9.45;;;;;;;;;;6189897;28;20054;-59
2022/01/16 11:05:53;;;;;;;27.60;9.13;;;;;;;;;;6200980;28;20065;-59
2022/01/16 11:08:56;;;;;;;25.30;9.05;;;;;;;;;;6196544;28;20054;-59
2022/01/16 11:12:01;;;;;;;22.35;8.23;;;;;;;;;;6197575;28;20050;-62
2022/01/16 11:15:03;;;;;;;27.55;9.10;;;;;;;;;;6194846;28;20057;-60
2022/01/16 11:18:05;;;;;;;22.42;8.45;;;;;;;;;;6199343;28;20516;-60
2022/01/16 11:21:15;;;;;;;19.48;8.30;;;;;;;;;;6194303;28;20108;-60
2022/01/16 11:27:17;;;;;;;20.67;8.03;;;;;;;;;;6194458;28;20085;-60
2022/01/16 11:30:18;;;;;;;21.70;8.50;;;;;;;;;;6198820;28;20515;-59
2022/01/16 11:33:21;;;;;;;19.17;7.47;;;;;;;;;;6191907;28;20145;-60
2022/01/16 11:36:27;;;;;;;16.88;8.05;;;;;;;;;;6197774;28;20078;-60
2022/01/16 11:39:36;;;;;;;21.40;7.30;;;;;;;;;;6196347;28;20058;-60
2022/01/16 11:42:37;;;;;;;21.92;8.93;;;;;;;;;;6194602;28;20058;-60
2022/01/16 11:45:52;;;;;;;19.05;8.38;;;;;;;;;;6196305;28;20229;-60
2022/01/16 11:48:59;;;;;;;19.48;8.38;;;;;;;;;;6192782;28;20054;-60
2022/01/16 11:52:13;;;;;;;19.10;8.00;;;;;;;;;;6198455;28;20058;-60
2022/01/16 11:55:14;;;;;;;18.98;8.80;;;;;;;;;;6194287;28;20057;-60
2022/01/16 11:58:14;;;;;;;21.98;9.57;;;;;;;;;;6199259;28;20057;-65
2022/01/16 12:01:41;;;;;;;19.20;7.80;;;;;;;;;;6195842;28;20070;-63
2022/01/16 12:04:45;;;;;;;22.42;8.27;;;;;;;;;;6192114;28;20156;-61
2022/01/16 12:07:48;;;;;;;18.95;8.05;;;;;;;;;;6193993;28;20045;-60
2022/01/16 12:10:55;;;;;;;17.55;8.50;;;;;;;;;;6193980;28;20246;-60
2022/01/16 12:13:56;;;;;;;18.45;8.35;;;;;;;;;;6197572;28;20058;-60
2022/01/16 12:16:58;;;;;;;19.15;8.75;;;;;;;;;;6193318;28;20463;-60
2022/01/16 12:20:25;;;;;;;25.08;8.85;;;;;;;;;;6191767;28;20054;-64
2022/01/16 12:23:29;;;;;;;21.00;9.93;;;;;;;;;;6190194;28;20434;-62
2022/01/16 12:26:34;;;;;;;22.10;10.15;;;;;;;;;;6192127;28;20061;-60
2022/01/16 12:30:09;;;;;;;23.88;10.43;;;;;;;;;;6197272;28;20073;-61
2022/01/16 12:33:31;;;;;;;22.02;9.57;;;;;;;;;;6189663;28;20409;-60
2022/01/16 12:36:34;;;;;;;22.10;9.63;;;;;;;;;;6186666;28;20092;-62
2022/01/16 12:39:41;;;;;;;;;;;;;;;;;;6201500;28;20092;-64
2022/01/16 12:42:43;;;;;;;20.70;8.90;;;;;;;;;;6197834;28;20011;-67
2022/01/16 12:45:44;;;;;;;26.13;9.90;;;;;;;;;;6195166;28;20050;-66
2022/01/16 12:48:47;;;;;;;33.65;13.25;;;;;;;;;;6194959;28;20651;-58
2022/01/16 12:51:52;;;;;;;27.55;9.75;;;;;;;;;;6196436;28;20750;-60
2022/01/16 12:54:52;;;;;;;24.85;10.13;;;;;;;;;;6195688;28;20506;-58
2022/01/16 12:57:53;;;;;;;21.02;9.05;;;;;;;;;;6195992;28;20136;-61
2022/01/16 13:01:03;;;;;;;31.65;10.75;;;;;;;;;;6191473;28;20436;-61
2022/01/16 13:04:03;;;;;;;28.50;12.52;;;;;;;;;;6191310;28;20050;-61
2022/01/16 13:07:15;;;;;;;37.15;15.45;;;;;;;;;;6198646;28;20737;-60
2022/01/16 13:10:16;;;;;;;28.07;11.23;;;;;;;;;;6195270;28;20085;-61
2022/01/16 13:13:16;;;;;;;23.00;11.75;;;;;;;;;;6198859;28;20177;-60
2022/01/16 13:16:26;;;;;;;25.27;11.40;;;;;;;;;;6193567;28;20054;-62
2022/01/16 13:19:29;;;;;;;24.63;10.90;;;;;;;;;;6190727;28;20253;-65
2022/01/16 13:22:36;;;;;;;29.52;12.73;;;;;;;;;;6191993;28;20181;-59
2022/01/16 13:25:37;;;;;;;26.23;11.75;;;;;;;;;;6190643;28;20062;-61
2022/01/16 13:28:38;;;;;;;31.73;11.32;;;;;;;;;;6194123;28;20114;-61
2022/01/16 13:31:39;;;;;;;26.10;10.77;;;;;;;;;;6185227;28;20127;-64
2022/01/16 13:34:53;;;;;;;27.85;10.77;;;;;;;;;;6173146;28;20054;-62
2022/01/16 13:38:03;;;;;;;24.13;10.75;;;;;;;;;;6174224;28;20139;-62
2022/01/16 13:41:12;;;;;;;29.20;13.30;;;;;;;;;;6175036;28;20070;-62
2022/01/16 13:44:26;;;;;;;23.48;10.68;;;;;;;;;;6173082;28;20058;-63
2022/01/16 13:47:27;;;;;;;28.10;12.20;;;;;;;;;;6175060;28;20054;-63
2022/01/16 13:50:33;;;;;;;26.75;12.35;;;;;;;;;;6171169;28;20088;-63
2022/01/16 13:53:33;;;;;;;24.25;9.93;;;;;;;;;;6175221;28;20065;-62
2022/01/16 13:56:37;;;;;;;25.10;9.60;;;;;;;;;;6177419;28;20137;-62
2022/01/16 13:59:38;;;;;;;27.25;10.55;;;;;;;;;;6168094;28;20588;-64
2022/01/16 14:02:39;;;;;;;25.08;10.48;;;;;;;;;;6174350;28;20057;-65
2022/01/16 14:05:45;;;;;;;30.30;11.15;;;;;;;;;;6181021;28;20042;-63
2022/01/16 14:09:03;;;;;;;26.58;11.13;;;;;;;;;;6178071;28;20086;-64
2022/01/16 14:12:06;;;;;;;30.35;11.73;;;;;;;;;;6175896;28;20106;-63
2022/01/16 14:15:13;;;;;;;28.73;11.30;;;;;;;;;;6177343;28;20049;-62
2022/01/16 14:18:28;;;;;;;27.85;11.57;;;;;;;;;;6175921;28;20089;-61
2022/01/16 14:24:40;;;;;;;35.15;15.40;;;;;;;;;;6171177;28;20094;-62
2022/01/16 14:27:41;;;;;;;32.45;16.33;;;;;;;;;;6184890;28;20418;-62
2022/01/16 14:30:42;;;;;;;35.15;12.38;;;;;;;;;;6176330;28;20054;-63
2022/01/16 14:33:43;;;;;;;33.08;14.95;;;;;;;;;;6179917;28;20046;-63
2022/01/16 14:36:44;;;;;;;59.38;24.55;;;;;;;;;;6176280;28;20104;-62
2022/01/16 14:39:46;;;;;;;42.10;18.33;;;;;;;;;;6182533;28;20129;-62
2022/01/16 14:42:53;;;;;;;31.58;13.45;;;;;;;;;;6174160;28;20470;-63
2022/01/16 14:45:55;;;;;;;35.17;12.60;;;;;;;;;;6180644;28;20668;-63
2022/01/16 14:48:57;;;;;;;34.38;15.65;;;;;;;;;;6182609;28;20183;-62
2022/01/16 14:51:58;;;;;;;31.15;12.07;;;;;;;;;;6180753;28;20094;-63
2022/01/16 14:54:59;;;;;;;30.75;13.70;;;;;;;;;;6173904;28;20594;-62
2022/01/16 14:58:00;;;;;;;29.63;13.07;;;;;;;;;;6179611;28;20245;-62
2022/01/16 15:01:01;;;;;;;29.58;12.80;;;;;;;;;;6181828;28;20490;-62
2022/01/16 15:04:01;;;;;;;29.88;12.02;;;;;;;;;;6179816;28;20411;-61
2022/01/16 15:07:03;;;;;;;28.73;12.15;;;;;;;;;;6174925;28;20532;-60
2022/01/16 15:10:06;;;;;;;28.10;12.40;;;;;;;;;;6182287;28;20066;-60
2022/01/16 15:13:06;;;;;;;;;;;;;;;;;;6172495;28;20050;-61
2022/01/16 15:16:10;;;;;;;29.65;12.13;;;;;;;;;;6175631;28;20142;-60
2022/01/16 15:19:17;;;;;;;34.75;14.93;;;;;;;;;;6183125;28;20059;-61
2022/01/16 15:22:25;;;;;;;33.60;12.65;;;;;;;;;;6182363;28;20050;-61
2022/01/16 15:25:28;;;;;;;33.47;15.82;;;;;;;;;;6176212;28;20276;-61
2022/01/16 15:28:33;;;;;;;34.33;14.10;;;;;;;;;;6182317;28;20176;-61
2022/01/16 15:31:34;;;;;;;33.90;13.25;;;;;;;;;;6186189;28;20050;-61
2022/01/16 15:34:35;;;;;;;31.48;14.00;;;;;;;;;;6176141;28;20584;-61
2022/01/16 15:37:35;;;;;;;32.15;13.15;;;;;;;;;;6184912;28;20062;-61
2022/01/16 15:40:37;;;;;;;33.53;13.68;;;;;;;;;;6188950;28;20119;-59
2022/01/16 15:43:37;;;;;;;36.75;13.98;;;;;;;;;;6180866;28;20054;-59
2022/01/16 15:46:39;;;;;;;32.67;13.75;;;;;;;;;;6176557;28;20491;-60
2022/01/16 15:49:40;;;;;;;34.72;14.60;;;;;;;;;;6173720;28;20104;-60
2022/01/16 15:52:43;;;;;;;30.27;12.63;;;;;;;;;;6174647;28;20082;-60
2022/01/16 15:55:45;;;;;;;30.52;13.00;;;;;;;;;;6174535;28;20064;-59
2022/01/16 15:58:47;;;;;;;32.35;13.38;;;;;;;;;;6180131;28;20082;-59
2022/01/16 16:01:49;;;;;;;36.35;14.98;;;;;;;;;;6179102;28;20061;-59
2022/01/16 16:04:49;;;;;;;38.58;14.20;;;;;;;;;;6173511;28;20181;-60
2022/01/16 16:07:51;;;;;;;33.60;14.35;;;;;;;;;;6169132;28;20551;-60
2022/01/16 16:10:53;;;;;;;34.95;15.20;;;;;;;;;;6174872;28;20141;-60
2022/01/16 16:13:53;;;;;;;36.78;14.63;;;;;;;;;;6171029;28;20058;-60
2022/01/16 16:16:54;;;;;;;38.38;16.30;;;;;;;;;;6166878;28;20672;-60
2022/01/16 16:19:55;;;;;;;35.80;15.50;;;;;;;;;;6172726;28;20046;-60
2022/01/16 16:22:58;;;;;;;36.05;14.00;;;;;;;;;;6167487;28;20054;-60
2022/01/16 16:26:00;;;;;;;38.20;14.48;;;;;;;;;;6168933;28;20139;-60
2022/01/16 16:29:03;;;;;;;40.95;15.55;;;;;;;;;;6175385;28;20598;-59
2022/01/16 16:32:07;;;;;;;36.90;15.13;;;;;;;;;;6175620;28;20141;-60
2022/01/16 16:35:14;;;;;;;38.47;13.80;;;;;;;;;;6170153;28;20145;-59
2022/01/16 16:38:15;;;;;;;30.40;13.20;;;;;;;;;;6167381;28;20065;-60
2022/01/16 16:41:16;;;;;;;31.27;12.73;;;;;;;;;;6169974;28;20054;-60
2022/01/16 16:44:18;;;;;;;33.97;13.02;;;;;;;;;;6171625;28;20170;-60
2022/01/16 16:47:19;;;;;;;33.20;11.80;;;;;;;;;;6168462;28;20062;-61
2022/01/16 16:50:19;;;;;;;29.92;11.48;;;;;;;;;;6178042;28;20054;-61
2022/01/16 16:53:20;;;;;;;26.70;11.07;;;;;;;;;;6180687;28;20054;-61
2022/01/16 16:56:21;;;;;;;24.33;11.50;;;;;;;;;;6175380;28;20096;-61
2022/01/16 16:59:22;;;;;;;29.40;11.52;;;;;;;;;;6182168;28;20046;-60
2022/01/16 17:02:26;;;;;;;29.42;11.07;;;;;;;;;;6176117;28;20176;-60
2022/01/16 17:05:27;;;;;;;34.40;13.00;;;;;;;;;;6168055;28;20058;-60
2022/01/16 17:08:28;;;;;;;25.98;13.32;;;;;;;;;;6169939;28;20047;-61
2022/01/16 17:11:29;;;;;;;37.83;15.02;;;;;;;;;;6177384;28;20101;-60
2022/01/16 17:14:30;;;;;;;29.48;12.75;;;;;;;;;;6176221;28;20048;-61
2022/01/16 17:17:30;;;;;;;36.25;14.43;;;;;;;;;;6168489;28;20047;-61
2022/01/16 17:20:31;;;;;;;37.55;14.57;;;;;;;;;;6171231;28;20232;-60
2022/01/16 17:23:32;;;;;;;31.88;13.32;;;;;;;;;;6178242;28;20046;-60
2022/01/16 17:26:32;;;;;;;34.88;14.43;;;;;;;;;;6181669;28;20108;-60
2022/01/16 17:29:34;;;;;;;37.00;13.85;;;;;;;;;;6191502;28;20076;-60
2022/01/16 17:32:34;;;;;;;31.83;14.90;;;;;;;;;;6195727;28;20413;-61
2022/01/16 17:35:35;;;;;;;37.95;17.05;;;;;;;;;;6196970;28;20054;-60
2022/01/16 17:38:36;;;;;;;40.45;18.30;;;;;;;;;;6189984;28;20054;-60
2022/01/16 17:41:37;;;;;;;38.90;17.40;;;;;;;;;;6189911;28;20145;-60
2022/01/16 17:44:37;;;;;;;49.03;18.90;;;;;;;;;;6187424;28;20465;-61
2022/01/16 17:47:38;;;;;;;44.45;17.35;;;;;;;;;;6185682;28;20911;-60
2022/01/16 17:50:39;;;;;;;36.67;15.25;;;;;;;;;;6188239;28;20042;-61
2022/01/16 17:53:42;;;;;;;39.63;17.42;;;;;;;;;;6184902;28;20062;-61
2022/01/16 17:56:43;;;;;;;47.20;18.25;;;;;;;;;;6188164;28;21205;-60
2022/01/16 17:59:44;;;;;;;42.47;18.02;;;;;;;;;;6188362;28;20049;-60
2022/01/16 18:02:44;;;;;;;46.85;18.58;;;;;;;;;;6187116;28;20050;-60
2022/01/16 18:05:45;;;;;;;52.50;21.05;;;;;;;;;;6193756;28;20141;-62
2022/01/16 18:08:46;;;;;;;59.38;25.45;;;;;;;;;;6192148;28;20548;-64
2022/01/16 18:11:46;;;;;;;53.50;22.52;;;;;;;;;;6191974;28;20478;-60
2022/01/16 18:14:48;;;;;;;49.70;22.48;;;;;;;;;;6193433;28;20505;-61
2022/01/16 18:17:49;;;;;;;47.93;20.97;;;;;;;;;;6199568;28;20092;-59
2022/01/16 18:20:50;;;;;;;46.78;19.33;;;;;;;;;;6203376;28;20061;-56
2022/01/16 18:23:52;;;;;;;51.28;21.05;;;;;;;;;;6199008;28;20433;-66
2022/01/16 18:26:52;;;;;;;46.33;20.45;;;;;;;;;;6197238;28;20054;-61